createdAt,value
2018-04-07T00:00:18.977Z,99.90
2018-04-07T00:02:47.187Z,99.90
2018-04-07T00:05:14.620Z,99.90
2018-04-07T00:07:42.049Z,99.90
2018-04-07T00:10:09.501Z,99.90
2018-04-07T00:12:36.942Z,99.90
2018-04-07T00:15:04.385Z,99.90
2018-04-07T00:17:31.833Z,99.90
2018-04-07T00:19:59.285Z,99.90
2018-04-07T00:22:26.716Z,99.90
2018-04-07T00:24:54.921Z,99.90
2018-04-07T00:27:22.363Z,99.90
2018-04-07T00:29:49.817Z,99.90
2018-04-07T00:32:17.249Z,99.90
2018-04-07T00:34:45.444Z,99.90
2018-04-07T00:37:12.885Z,99.90
2018-04-07T00:39:41.082Z,99.90
2018-04-07T00:42:08.525Z,99.90
2018-04-07T00:44:35.958Z,99.90
2018-04-07T00:47:03.405Z,99.90
2018-04-07T00:49:30.837Z,99.90
2018-04-07T00:51:58.292Z,99.90
2018-04-07T00:54:25.729Z,99.90
2018-04-07T00:56:53.159Z,99.90
2018-04-07T00:59:21.370Z,99.90
2018-04-07T01:01:48.812Z,99.90
2018-04-07T01:04:16.270Z,99.90
2018-04-07T01:06:43.720Z,99.90
2018-04-07T01:09:11.169Z,99.90
2018-04-07T01:11:39.378Z,99.90
2018-04-07T01:14:06.923Z,99.90
2018-04-07T01:16:34.391Z,99.90
2018-04-07T01:19:01.846Z,99.90
2018-04-07T01:21:29.298Z,99.90
2018-04-07T01:23:56.841Z,99.90
2018-04-07T01:26:24.284Z,99.90
2018-04-07T01:28:52.498Z,99.90
2018-04-07T01:31:19.941Z,99.90
2018-04-07T01:33:47.583Z,99.90
2018-04-07T01:36:15.803Z,99.90
2018-04-07T01:38:43.244Z,99.90
2018-04-07T01:41:10.689Z,99.90
2018-04-07T01:43:39.159Z,99.90
2018-04-07T01:46:07.403Z,99.90
2018-04-07T01:48:34.821Z,99.90
2018-04-07T01:51:02.285Z,99.90
2018-04-07T01:53:29.730Z,99.90
2018-04-07T01:55:57.256Z,99.90
2018-04-07T01:58:25.470Z,99.90
2018-04-07T02:00:52.952Z,99.90
2018-04-07T02:03:20.405Z,99.90
2018-04-07T02:05:47.864Z,99.90
2018-04-07T02:08:15.306Z,99.90
2018-04-07T02:10:42.767Z,99.90
2018-04-07T02:13:10.209Z,99.90
2018-04-07T02:15:37.629Z,99.90
2018-04-07T02:18:05.863Z,99.90
2018-04-07T02:20:33.311Z,99.90
2018-04-07T02:23:00.761Z,99.90
2018-04-07T02:25:28.213Z,99.90
2018-04-07T02:27:55.650Z,99.90
2018-04-07T02:30:23.094Z,99.90
2018-04-07T02:32:51.310Z,99.90
2018-04-07T02:35:18.777Z,99.90
2018-04-07T02:37:46.212Z,99.90
2018-04-07T02:40:13.663Z,99.90
2018-04-07T02:42:41.099Z,99.90
2018-04-07T02:45:09.320Z,99.90
2018-04-07T02:47:36.769Z,99.90
2018-04-07T02:50:04.219Z,99.90
2018-04-07T02:52:31.673Z,99.90
2018-04-07T02:54:59.125Z,99.90
2018-04-07T02:57:26.572Z,99.90
2018-04-07T02:59:54.014Z,99.90
2018-04-07T03:02:22.242Z,99.90
2018-04-07T03:04:49.683Z,99.90
2018-04-07T03:07:17.132Z,99.90
2018-04-07T03:09:44.580Z,99.90
2018-04-07T03:12:12.011Z,99.90
2018-04-07T03:14:40.232Z,99.90
2018-04-07T03:17:07.688Z,99.90
2018-04-07T03:19:35.139Z,99.90
2018-04-07T03:22:02.572Z,99.90
2018-04-07T03:24:30.799Z,99.90
2018-04-07T03:26:58.241Z,99.90
2018-04-07T03:29:25.687Z,99.90
2018-04-07T03:31:53.117Z,99.90
2018-04-07T03:34:21.342Z,99.90
2018-04-07T03:36:48.888Z,99.90
2018-04-07T03:39:16.341Z,99.90
2018-04-07T03:41:43.775Z,99.90
2018-04-07T03:44:11.217Z,99.90
2018-04-07T03:46:39.426Z,99.90
2018-04-07T03:49:06.873Z,99.90
2018-04-07T03:51:34.314Z,99.90
2018-04-07T03:54:02.521Z,99.90
2018-04-07T03:56:29.952Z,99.90
2018-04-07T03:58:57.399Z,99.90
2018-04-07T04:01:24.850Z,99.90
2018-04-07T04:03:53.073Z,99.90
2018-04-07T04:06:20.539Z,99.90
2018-04-07T04:08:48.049Z,99.90
2018-04-07T04:11:16.318Z,99.90
2018-04-07T04:13:44.517Z,99.90
2018-04-07T04:16:11.982Z,99.90
2018-04-07T04:18:39.413Z,99.90
2018-04-07T04:21:07.632Z,99.90
2018-04-07T04:23:35.077Z,99.90
2018-04-07T04:26:02.528Z,99.90
2018-04-07T04:28:29.963Z,99.90
2018-04-07T04:30:58.225Z,99.90
2018-04-07T04:33:26.445Z,99.90
2018-04-07T04:35:53.892Z,99.90
2018-04-07T04:38:21.339Z,99.90
2018-04-07T04:40:48.795Z,99.90
2018-04-07T04:43:16.243Z,99.90
2018-04-07T04:45:44.457Z,99.90
2018-04-07T04:48:11.972Z,99.90
2018-04-07T04:50:40.253Z,99.90
2018-04-07T04:53:08.468Z,99.90
2018-04-07T04:55:35.915Z,99.90
2018-04-07T04:58:03.352Z,99.90
2018-04-07T05:00:30.780Z,99.90
2018-04-07T05:02:59.001Z,99.90
2018-04-07T05:05:26.460Z,99.90
2018-04-07T05:07:53.966Z,99.90
2018-04-07T05:10:21.406Z,99.90
2018-04-07T05:12:48.856Z,99.90
2018-04-07T05:15:16.315Z,99.90
2018-04-07T05:17:43.773Z,99.90
2018-04-07T05:20:11.225Z,99.90
2018-04-07T05:22:38.687Z,99.90
2018-04-07T05:25:06.107Z,99.90
2018-04-07T05:27:33.548Z,99.90
2018-04-07T05:30:01.763Z,99.90
2018-04-07T05:32:29.208Z,99.90
2018-04-07T05:34:56.645Z,99.90
2018-04-07T05:37:24.104Z,99.90
2018-04-07T05:39:51.545Z,99.90
2018-04-07T05:42:19.812Z,99.90
2018-04-07T05:44:47.237Z,99.90
2018-04-07T05:47:14.706Z,99.90
2018-04-07T05:49:42.198Z,99.90
2018-04-07T05:52:10.465Z,99.90
2018-04-07T05:54:38.743Z,99.90
2018-04-07T05:57:06.960Z,99.90
2018-04-07T05:59:34.419Z,99.90
2018-04-07T06:02:01.873Z,99.90
2018-04-07T06:04:29.337Z,99.90
2018-04-07T06:06:56.775Z,99.90
2018-04-07T06:09:24.225Z,99.90
2018-04-07T06:11:51.666Z,99.90
2018-04-07T06:14:20.028Z,99.90
2018-04-07T06:16:47.476Z,99.90
2018-04-07T06:19:14.973Z,99.90
2018-04-07T06:21:42.410Z,99.90
2018-04-07T06:24:10.626Z,99.90
2018-04-07T06:26:38.071Z,99.90
2018-04-07T06:29:05.516Z,99.90
2018-04-07T06:31:32.948Z,99.90
2018-04-07T06:34:00.405Z,99.90
2018-04-07T06:36:27.877Z,99.90
2018-04-07T06:38:56.088Z,99.90
2018-04-07T06:41:23.551Z,99.90
2018-04-07T06:43:50.999Z,99.90
2018-04-07T06:46:18.450Z,99.90
2018-04-07T06:48:45.900Z,99.90
2018-04-07T06:51:13.341Z,99.90
2018-04-07T06:53:41.558Z,99.90
2018-04-07T06:56:09.072Z,99.90
2018-04-07T06:58:36.601Z,99.90
2018-04-07T07:01:04.059Z,99.90
2018-04-07T07:03:31.505Z,99.70
2018-04-07T07:05:59.043Z,99.30
2018-04-07T07:08:26.473Z,99.20
2018-04-07T07:10:53.933Z,99.00
2018-04-07T07:13:21.376Z,98.60
2018-04-07T07:15:49.592Z,96.50
2018-04-07T07:18:17.100Z,96.50
2018-04-07T07:20:44.535Z,94.30
2018-04-07T07:23:12.037Z,92.90
2018-04-07T07:25:39.491Z,91.80
2018-04-07T07:28:07.710Z,86.60
2018-04-07T07:30:35.147Z,86.60
2018-04-07T07:33:02.607Z,85.10
2018-04-07T07:35:30.056Z,84.50
2018-04-07T07:37:57.609Z,82.10
2018-04-07T07:40:25.049Z,80.30
2018-04-07T07:42:53.262Z,76.40
2018-04-07T07:45:20.852Z,76.40
2018-04-07T07:47:48.417Z,76.30
2018-04-07T07:50:15.871Z,77.70
2018-04-07T07:52:43.325Z,75.00
2018-04-07T07:55:10.779Z,73.30
2018-04-07T07:57:38.246Z,72.70
2018-04-07T08:00:05.700Z,71.60
2018-04-07T08:02:33.147Z,69.00
2018-04-07T08:05:00.598Z,68.90
2018-04-07T08:07:28.054Z,68.10
2018-04-07T08:09:55.510Z,66.80
2018-04-07T08:12:22.962Z,63.50
2018-04-07T08:14:50.419Z,62.10
2018-04-07T08:17:17.863Z,63.80
2018-04-07T08:19:45.305Z,64.10
2018-04-07T08:22:12.757Z,64.00
2018-04-07T08:24:40.238Z,61.60
2018-04-07T08:27:07.706Z,63.10
2018-04-07T08:29:35.160Z,60.40
2018-04-07T08:32:02.671Z,59.90
2018-04-07T08:34:30.074Z,59.70
2018-04-07T08:36:57.535Z,62.50
2018-04-07T08:39:25.055Z,59.80
2018-04-07T08:41:52.448Z,57.80
2018-04-07T08:44:19.907Z,57.80
2018-04-07T08:46:47.376Z,55.80
2018-04-07T08:49:14.822Z,56.70
2018-04-07T08:51:42.293Z,57.30
2018-04-07T08:54:09.738Z,54.80
2018-04-07T08:56:37.193Z,56.20
2018-04-07T08:59:04.643Z,55.80
2018-04-07T09:01:32.100Z,55.40
2018-04-07T09:03:59.554Z,55.10
2018-04-07T09:06:27.034Z,54.50
2018-04-07T09:08:54.504Z,57.00
2018-04-07T09:11:21.966Z,55.10
2018-04-07T09:13:49.424Z,53.50
2018-04-07T09:16:16.888Z,53.30
2018-04-07T09:18:48.728Z,52.80
2018-04-07T09:21:16.954Z,50.90
2018-04-07T09:23:44.397Z,50.80
2018-04-07T09:26:12.622Z,50.60
2018-04-07T09:28:40.073Z,50.50
2018-04-07T09:31:13.218Z,53.80
2018-04-07T09:33:41.615Z,54.50
2018-04-07T09:36:09.072Z,51.70
2018-04-07T09:38:36.516Z,55.70
2018-04-07T09:41:04.781Z,52.80
2018-04-07T09:43:32.242Z,52.70
2018-04-07T09:45:59.751Z,53.20
2018-04-07T09:48:27.222Z,50.10
2018-04-07T09:50:54.746Z,50.40
2018-04-07T09:53:22.139Z,53.10
2018-04-07T09:55:49.600Z,49.20
2018-04-07T09:58:17.087Z,49.90
2018-04-07T10:00:47.460Z,50.20
2018-04-07T10:03:20.559Z,51.00
2018-04-07T10:05:47.999Z,49.70
2018-04-07T10:08:15.475Z,48.80
2018-04-07T10:10:42.922Z,48.50
2018-04-07T10:13:10.378Z,51.60
2018-04-07T10:15:37.844Z,49.30
2018-04-07T10:18:05.308Z,48.90
2018-04-07T10:20:32.759Z,51.40
2018-04-07T10:23:00.228Z,49.00
2018-04-07T10:25:27.677Z,56.60
2018-04-07T10:27:55.135Z,47.60
2018-04-07T10:30:22.674Z,48.90
2018-04-07T10:32:50.131Z,48.20
2018-04-07T10:35:17.600Z,47.60
2018-04-07T10:37:45.059Z,49.50
2018-04-07T10:40:12.549Z,47.70
2018-04-07T10:42:39.978Z,48.60
2018-04-07T10:45:07.445Z,47.10
2018-04-07T10:47:34.902Z,47.30
2018-04-07T10:50:02.362Z,47.30
2018-04-07T10:52:29.862Z,46.90
2018-04-07T10:54:57.334Z,46.50
2018-04-07T10:57:25.550Z,45.80
2018-04-07T10:59:53.117Z,46.00
2018-04-07T11:02:20.565Z,46.00
2018-04-07T11:04:48.042Z,45.30
2018-04-07T11:07:15.498Z,46.30
2018-04-07T11:09:42.952Z,45.80
2018-04-07T11:12:10.417Z,44.90
2018-04-07T11:14:37.955Z,44.10
2018-04-07T11:17:05.401Z,43.40
2018-04-07T11:19:32.901Z,42.50
2018-04-07T11:22:00.346Z,43.40
2018-04-07T11:24:27.803Z,41.70
2018-04-07T11:26:55.257Z,41.70
2018-04-07T11:29:22.702Z,41.80
2018-04-07T11:31:50.160Z,42.60
2018-04-07T11:34:17.608Z,41.60
2018-04-07T11:36:45.891Z,43.10
2018-04-07T11:39:13.403Z,45.50
2018-04-07T11:41:42.605Z,42.60
2018-04-07T11:44:10.058Z,42.60
2018-04-07T11:46:38.285Z,45.40
2018-04-07T11:49:05.733Z,45.40
2018-04-07T11:51:33.186Z,42.30
2018-04-07T11:54:00.639Z,42.00
2018-04-07T11:56:28.090Z,41.30
2018-04-07T11:58:55.542Z,43.00
2018-04-07T12:01:22.998Z,42.50
2018-04-07T12:03:50.451Z,42.80
2018-04-07T12:06:17.889Z,44.10
2018-04-07T12:08:46.102Z,42.80
2018-04-07T12:11:15.586Z,42.70
2018-04-07T12:13:43.024Z,42.30
2018-04-07T12:16:11.253Z,43.10
2018-04-07T12:18:38.716Z,43.10
2018-04-07T12:21:06.161Z,43.70
2018-04-07T12:23:34.023Z,43.70
2018-04-07T12:26:01.469Z,43.90
2018-04-07T12:28:28.931Z,44.90
2018-04-07T12:30:56.371Z,45.30
2018-04-07T12:33:23.812Z,45.50
2018-04-07T12:35:52.053Z,45.40
2018-04-07T12:38:19.521Z,45.40
2018-04-07T12:40:46.975Z,45.10
2018-04-07T12:43:14.416Z,44.30
2018-04-07T12:45:41.875Z,45.00
2018-04-07T12:48:09.320Z,44.40
2018-04-07T12:50:36.774Z,44.30
2018-04-07T12:53:04.234Z,44.80
2018-04-07T12:55:31.679Z,45.80
2018-04-07T12:57:59.121Z,46.50
2018-04-07T13:00:26.569Z,44.80
2018-04-07T13:02:54.034Z,45.10
2018-04-07T13:05:21.493Z,44.90
2018-04-07T13:07:48.938Z,45.50
2018-04-07T13:10:17.145Z,43.60
2018-04-07T13:12:44.635Z,43.50
2018-04-07T13:15:12.056Z,43.30
2018-04-07T13:17:39.605Z,46.10
2018-04-07T13:20:08.993Z,44.00
2018-04-07T13:22:36.450Z,44.10
2018-04-07T13:25:03.905Z,45.80
2018-04-07T13:27:31.379Z,47.60
2018-04-07T13:29:58.823Z,45.20
2018-04-07T13:32:26.269Z,43.50
2018-04-07T13:34:54.493Z,44.20
2018-04-07T13:37:21.940Z,44.10
2018-04-07T13:39:49.398Z,44.70
2018-04-07T13:42:16.853Z,44.10
2018-04-07T13:44:44.302Z,44.50
2018-04-07T13:47:11.748Z,43.50
2018-04-07T13:49:39.230Z,43.40
2018-04-07T13:52:06.677Z,43.70
2018-04-07T13:54:34.135Z,42.90
2018-04-07T13:57:01.600Z,42.80
2018-04-07T13:59:29.058Z,43.90
2018-04-07T14:01:57.530Z,43.90
2018-04-07T14:04:25.030Z,44.10
2018-04-07T14:06:52.445Z,43.30
2018-04-07T14:09:19.910Z,41.70
2018-04-07T14:11:47.427Z,43.10
2018-04-07T14:14:15.703Z,42.70
2018-04-07T14:16:43.988Z,41.10
2018-04-07T14:19:11.401Z,41.10
2018-04-07T14:21:38.844Z,40.10
2018-04-07T14:24:07.070Z,41.40
2018-04-07T14:26:35.287Z,41.60
2018-04-07T14:29:02.746Z,41.50
2018-04-07T14:31:30.201Z,42.10
2018-04-07T14:33:57.655Z,41.30
2018-04-07T14:36:25.099Z,42.20
2018-04-07T14:38:52.563Z,41.80
2018-04-07T14:41:20.047Z,42.00
2018-04-07T14:43:47.489Z,40.90
2018-04-07T14:46:14.947Z,40.50
2018-04-07T14:48:42.410Z,40.90
2018-04-07T14:51:09.861Z,41.70
2018-04-07T14:53:37.310Z,42.30
2018-04-07T14:56:04.766Z,39.70
2018-04-07T14:58:32.215Z,38.70
2018-04-07T15:00:59.706Z,39.90
2018-04-07T15:03:27.153Z,42.00
2018-04-07T15:05:54.616Z,40.30
2018-04-07T15:08:22.062Z,38.40
2018-04-07T15:10:49.502Z,37.80
2018-04-07T15:13:16.946Z,36.40
2018-04-07T15:15:44.397Z,36.90
2018-04-07T15:18:11.901Z,38.30
2018-04-07T15:20:39.349Z,38.90
2018-04-07T15:23:06.800Z,39.40
2018-04-07T15:25:34.260Z,40.10
2018-04-07T15:28:01.745Z,40.40
2018-04-07T15:30:30.234Z,39.30
2018-04-07T15:32:57.771Z,40.30
2018-04-07T15:35:25.954Z,39.20
2018-04-07T15:37:53.459Z,39.20
2018-04-07T15:40:21.703Z,40.20
2018-04-07T15:42:49.167Z,40.10
2018-04-07T15:45:16.636Z,40.50
2018-04-07T15:47:44.853Z,40.50
2018-04-07T15:50:12.294Z,40.30
2018-04-07T15:52:39.750Z,39.80
2018-04-07T15:55:07.188Z,40.60
2018-04-07T15:57:35.477Z,40.40
2018-04-07T16:00:02.935Z,40.40
2018-04-07T16:02:30.385Z,39.90
2018-04-07T16:04:58.693Z,40.50
2018-04-07T16:07:26.141Z,40.50
2018-04-07T16:09:53.637Z,40.30
2018-04-07T16:12:21.159Z,41.00
2018-04-07T16:14:48.584Z,40.40
2018-04-07T16:17:16.801Z,40.00
2018-04-07T16:19:44.253Z,40.00
2018-04-07T16:22:11.712Z,40.30
2018-04-07T16:24:39.167Z,40.40
2018-04-07T16:27:06.626Z,40.00
2018-04-07T16:29:34.086Z,40.50
2018-04-07T16:32:01.542Z,40.00
2018-04-07T16:34:29.000Z,40.20
2018-04-07T16:36:56.460Z,40.70
2018-04-07T16:39:23.917Z,40.70
2018-04-07T16:41:51.370Z,41.50
2018-04-07T16:44:18.829Z,42.00
2018-04-07T16:46:46.288Z,40.80
2018-04-07T16:49:13.756Z,41.60
2018-04-07T16:51:41.202Z,41.40
2018-04-07T16:54:08.658Z,41.40
2018-04-07T16:56:36.115Z,42.10
2018-04-07T16:59:03.573Z,42.00
2018-04-07T17:01:31.035Z,42.00
2018-04-07T17:03:58.491Z,42.20
2018-04-07T17:06:25.946Z,42.90
2018-04-07T17:08:53.423Z,42.70
2018-04-07T17:11:20.908Z,43.70
2018-04-07T17:13:48.349Z,44.00
2018-04-07T17:16:15.871Z,43.80
2018-04-07T17:18:43.330Z,43.90
2018-04-07T17:21:10.776Z,43.40
2018-04-07T17:23:38.220Z,43.80
2018-04-07T17:26:05.684Z,44.20
2018-04-07T17:28:33.138Z,43.60
2018-04-07T17:31:00.590Z,44.20
2018-04-07T17:33:28.838Z,44.20
2018-04-07T17:35:56.268Z,44.20
2018-04-07T17:38:23.785Z,43.80
2018-04-07T17:40:51.230Z,44.40
2018-04-07T17:43:19.443Z,43.60
2018-04-07T17:45:46.904Z,43.60
2018-04-07T17:48:14.362Z,43.70
2018-04-07T17:50:41.821Z,43.90
2018-04-07T17:53:09.280Z,43.70
2018-04-07T17:55:36.729Z,43.90
2018-04-07T17:58:04.188Z,43.50
2018-04-07T18:00:32.401Z,44.10
2018-04-07T18:02:59.879Z,44.10
2018-04-07T18:05:28.095Z,44.40
2018-04-07T18:07:55.546Z,44.40
2018-04-07T18:10:23.015Z,44.40
2018-04-07T18:12:50.467Z,44.50
2018-04-07T18:15:17.936Z,43.80
2018-04-07T18:17:45.387Z,44.30
2018-04-07T18:20:12.847Z,44.60
2018-04-07T18:22:40.303Z,44.50
2018-04-07T18:25:07.791Z,43.80
2018-04-07T18:27:35.244Z,44.70
2018-04-07T18:30:02.821Z,45.00
2018-04-07T18:32:30.269Z,44.30
2018-04-07T18:34:57.767Z,44.70
2018-04-07T18:37:25.992Z,44.30
2018-04-07T18:39:53.455Z,44.30
2018-04-07T18:42:20.910Z,44.60
2018-04-07T18:44:48.354Z,44.90
2018-04-07T18:47:15.921Z,44.80
2018-04-07T18:49:43.366Z,45.10
2018-04-07T18:52:10.824Z,44.80
2018-04-07T18:54:38.302Z,44.80
2018-04-07T18:57:05.789Z,44.80
2018-04-07T18:59:34.003Z,45.20
2018-04-07T19:02:01.457Z,45.20
2018-04-07T19:04:28.908Z,45.00
2018-04-07T19:06:56.382Z,45.30
2018-04-07T19:09:23.829Z,45.10
2018-04-07T19:11:51.282Z,45.30
2018-04-07T19:14:18.744Z,45.60
2018-04-07T19:16:46.190Z,45.60
2018-04-07T19:19:13.659Z,46.00
2018-04-07T19:21:41.112Z,46.60
2018-04-07T19:24:08.560Z,45.80
2018-04-07T19:26:36.064Z,46.20
2018-04-07T19:29:03.512Z,46.40
2018-04-07T19:31:30.988Z,46.50
2018-04-07T19:33:58.470Z,46.90
2018-04-07T19:36:26.691Z,47.30
2018-04-07T19:38:54.215Z,47.10
2018-04-07T19:41:21.734Z,47.00
2018-04-07T19:43:49.890Z,47.50
2018-04-07T19:46:17.343Z,47.50
2018-04-07T19:48:44.801Z,47.70
2018-04-07T19:51:12.256Z,47.90
2018-04-07T19:53:39.686Z,48.20
2018-04-07T19:56:07.132Z,48.30
2018-04-07T19:58:34.625Z,48.00
2018-04-07T20:01:02.082Z,48.30
2018-04-07T20:03:29.525Z,48.30
2018-04-07T20:05:56.972Z,48.20
2018-04-07T20:08:24.427Z,48.50
2018-04-07T20:10:51.874Z,48.80
2018-04-07T20:13:20.081Z,49.00
2018-04-07T20:15:47.536Z,49.00
2018-04-07T20:18:14.991Z,48.90
2018-04-07T20:20:42.528Z,50.60
2018-04-07T20:23:09.982Z,51.40
2018-04-07T20:25:38.206Z,55.50
2018-04-07T20:28:05.665Z,55.50
2018-04-07T20:30:33.105Z,57.40
2018-04-07T20:33:00.564Z,57.50
2018-04-07T20:35:28.022Z,58.50
2018-04-07T20:37:55.592Z,59.60
2018-04-07T20:40:23.025Z,65.00
2018-04-07T20:42:50.487Z,67.40
2018-04-07T20:45:17.963Z,68.60
2018-04-07T20:47:45.412Z,68.60
2018-04-07T20:50:12.858Z,70.70
2018-04-07T20:52:41.144Z,80.70
2018-04-07T20:55:08.616Z,80.60
2018-04-07T20:57:36.090Z,88.60
2018-04-07T21:00:03.544Z,92.10
2018-04-07T21:02:31.003Z,92.20
2018-04-07T21:04:58.492Z,92.10
2018-04-07T21:07:26.709Z,89.40
2018-04-07T21:09:54.170Z,89.40
2018-04-07T21:12:21.632Z,89.80
2018-04-07T21:14:49.091Z,91.10
2018-04-07T21:17:16.538Z,91.40
2018-04-07T21:19:43.985Z,90.50
2018-04-07T21:22:11.430Z,90.50
2018-04-07T21:24:38.876Z,91.60
2018-04-07T21:27:06.315Z,90.20
2018-04-07T21:29:34.560Z,89.10
2018-04-07T21:32:01.993Z,88.60
2018-04-07T21:34:29.457Z,89.10
2018-04-07T21:36:56.914Z,88.90
2018-04-07T21:39:24.374Z,89.60
2018-04-07T21:41:51.829Z,90.60
2018-04-07T21:44:19.308Z,88.80
2018-04-07T21:46:46.762Z,90.10
2018-04-07T21:49:14.240Z,91.20
2018-04-07T21:51:41.660Z,93.70
2018-04-07T21:54:09.127Z,94.60
2018-04-07T21:56:36.579Z,92.30
2018-04-07T21:59:04.035Z,92.20
2018-04-07T22:01:31.487Z,92.00
2018-04-07T22:03:58.953Z,92.70
2018-04-07T22:06:27.392Z,92.20
2018-04-07T22:08:55.606Z,92.10
2018-04-07T22:11:23.066Z,92.10
2018-04-07T22:13:50.513Z,92.20
2018-04-07T22:16:17.964Z,92.20
2018-04-07T22:18:45.404Z,91.80
2018-04-07T22:21:12.867Z,92.60
2018-04-07T22:23:40.318Z,93.60
2018-04-07T22:26:07.776Z,94.20
2018-04-07T22:28:35.215Z,94.60
2018-04-07T22:31:03.446Z,96.10
2018-04-07T22:33:30.976Z,96.10
2018-04-07T22:35:58.447Z,97.10
2018-04-07T22:38:25.907Z,98.30
2018-04-07T22:40:53.363Z,98.10
2018-04-07T22:43:20.813Z,98.30
2018-04-07T22:45:48.273Z,98.20
2018-04-07T22:48:15.732Z,97.30
2018-04-07T22:50:43.183Z,96.90
2018-04-07T22:53:10.663Z,97.60
2018-04-07T22:55:38.105Z,97.60
2018-04-07T22:58:05.564Z,97.30
2018-04-07T23:00:33.018Z,98.50
2018-04-07T23:03:00.470Z,97.70
2018-04-07T23:05:27.913Z,97.40
2018-04-07T23:07:55.378Z,97.80
2018-04-07T23:10:22.825Z,98.20
2018-04-07T23:12:50.296Z,99.10
2018-04-07T23:15:17.736Z,99.00
2018-04-07T23:17:45.223Z,98.70
2018-04-07T23:20:12.669Z,98.80
2018-04-07T23:22:40.117Z,98.90
2018-04-07T23:25:07.588Z,99.00
2018-04-07T23:27:35.022Z,99.90
2018-04-07T23:30:02.465Z,99.90
2018-04-07T23:32:30.685Z,99.60
2018-04-07T23:34:58.135Z,99.60
2018-04-07T23:37:25.594Z,99.20
2018-04-07T23:39:53.049Z,99.40
2018-04-07T23:42:20.484Z,99.00
2018-04-07T23:44:48.044Z,99.80
2018-04-07T23:47:15.494Z,99.90
2018-04-07T23:49:43.700Z,99.90
2018-04-07T23:52:11.159Z,99.90
2018-04-07T23:54:38.627Z,99.90
2018-04-07T23:57:06.078Z,99.90
2018-04-07T23:59:33.519Z,99.90
